createdAt,value
2023-01-15T00:00:04.450Z,75.30
2023-01-15T00:00:59.518Z,75.27
2023-01-15T00:01:54.499Z,75.22
2023-01-15T00:02:49.658Z,75.31
2023-01-15T00:03:44.675Z,75.50
2023-01-15T00:04:39.780Z,75.47
2023-01-15T00:05:34.915Z,75.34
2023-01-15T00:06:29.818Z,75.45
2023-01-15T00:07:24.911Z,75.57
2023-01-15T00:08:19.971Z,75.53
2023-01-15T00:09:15.006Z,75.56
2023-01-15T00:10:10.130Z,75.44
2023-01-15T00:11:05.980Z,75.48
2023-01-15T00:12:01.067Z,75.45
2023-01-15T00:12:56.162Z,75.43
2023-01-15T00:13:52.696Z,75.48
2023-01-15T00:14:47.879Z,75.49
2023-01-15T00:15:43.863Z,75.61
2023-01-15T00:16:38.929Z,75.68
2023-01-15T00:17:33.917Z,75.61
2023-01-15T00:18:29.836Z,75.42
2023-01-15T00:19:25.097Z,75.32
2023-01-15T00:20:20.912Z,75.19
2023-01-15T00:21:15.924Z,75.33
2023-01-15T00:22:11.252Z,75.17
2023-01-15T00:23:07.099Z,74.98
2023-01-15T00:24:02.150Z,75.05
2023-01-15T00:24:57.422Z,75.02
2023-01-15T00:25:53.690Z,74.79
2023-01-15T00:26:48.887Z,74.60
2023-01-15T00:27:44.859Z,74.54
2023-01-15T00:28:39.983Z,74.52
2023-01-15T00:29:35.224Z,74.83
2023-01-15T00:30:30.959Z,74.58
2023-01-15T00:31:26.115Z,74.58
2023-01-15T00:32:22.089Z,74.58
2023-01-15T00:33:17.084Z,74.09
2023-01-15T00:34:12.645Z,74.21
2023-01-15T00:35:08.367Z,74.20
2023-01-15T00:36:03.409Z,74.31
2023-01-15T00:36:58.655Z,74.07
2023-01-15T00:37:55.069Z,73.97
2023-01-15T00:38:50.296Z,73.92
2023-01-15T00:39:46.137Z,73.90
2023-01-15T00:40:41.239Z,73.69
2023-01-15T00:41:36.632Z,73.87
2023-01-15T00:42:32.358Z,73.55
2023-01-15T00:43:27.556Z,73.28
2023-01-15T00:44:23.665Z,73.02
2023-01-15T00:45:18.798Z,73.02
2023-01-15T00:46:14.223Z,72.83
2023-01-15T00:47:09.833Z,72.55
2023-01-15T00:48:04.966Z,72.49
2023-01-15T00:49:00.209Z,72.46
2023-01-15T00:49:56.692Z,71.93
2023-01-15T00:50:51.883Z,71.73
2023-01-15T00:51:47.665Z,71.94
2023-01-15T00:52:42.890Z,71.86
2023-01-15T00:53:38.318Z,71.51
2023-01-15T00:54:33.996Z,71.14
2023-01-15T00:55:29.282Z,71.04
2023-01-15T00:56:25.277Z,70.82
2023-01-15T00:57:20.397Z,70.71
2023-01-15T00:58:15.570Z,70.55
2023-01-15T00:59:11.490Z,70.26
2023-01-15T01:00:06.557Z,70.03
2023-01-15T01:01:01.898Z,70.25
2023-01-15T01:01:58.595Z,70.22
2023-01-15T01:02:53.443Z,70.01
2023-01-15T01:03:49.298Z,69.98
2023-01-15T01:04:44.556Z,69.75
2023-01-15T01:05:39.645Z,69.80
2023-01-15T01:06:35.497Z,69.85
2023-01-15T01:07:31.093Z,69.73
2023-01-15T01:08:26.773Z,69.69
2023-01-15T01:09:21.818Z,69.42
2023-01-15T01:10:16.947Z,69.42
2023-01-15T01:11:12.225Z,69.31
2023-01-15T01:12:07.193Z,69.21
2023-01-15T01:13:02.226Z,69.14
2023-01-15T01:13:57.266Z,68.82
2023-01-15T01:14:52.315Z,69.03
2023-01-15T01:15:47.413Z,68.92
2023-01-15T01:16:42.428Z,68.64
2023-01-15T01:17:37.461Z,68.60
2023-01-15T01:18:32.477Z,68.46
2023-01-15T01:19:33.257Z,68.61
2023-01-15T01:20:28.633Z,68.69
2023-01-15T01:21:23.802Z,68.54
2023-01-15T01:22:19.839Z,68.65
2023-01-15T01:23:14.739Z,68.48
2023-01-15T01:24:10.200Z,68.40
2023-01-15T01:25:06.326Z,68.67
2023-01-15T01:26:01.580Z,68.46
2023-01-15T01:26:57.422Z,68.42
2023-01-15T01:27:52.730Z,68.18
2023-01-15T01:28:47.813Z,68.03
2023-01-15T01:29:43.063Z,68.08
2023-01-15T01:30:38.102Z,68.15
2023-01-15T01:31:33.442Z,67.72
2023-01-15T01:32:28.688Z,67.76
2023-01-15T01:33:24.411Z,67.81
2023-01-15T01:34:19.438Z,67.60
2023-01-15T01:35:14.614Z,67.68
2023-01-15T01:36:10.313Z,67.42
2023-01-15T01:37:05.727Z,67.65
2023-01-15T01:38:00.884Z,67.40
2023-01-15T01:38:56.113Z,67.49
2023-01-15T01:39:51.118Z,67.54
2023-01-15T01:40:46.232Z,67.34
2023-01-15T01:41:41.226Z,67.41
2023-01-15T01:42:36.290Z,67.31
2023-01-15T01:43:31.297Z,67.35
2023-01-15T01:44:26.325Z,67.18
2023-01-15T01:45:21.418Z,67.08
2023-01-15T01:46:16.575Z,67.17
2023-01-15T01:47:11.595Z,67.28
2023-01-15T01:48:07.328Z,67.33
2023-01-15T01:49:01.813Z,67.28
2023-01-15T01:49:56.945Z,67.78
2023-01-15T01:50:52.057Z,67.88
2023-01-15T01:51:47.221Z,68.13
2023-01-15T01:52:42.210Z,68.39
2023-01-15T01:53:37.470Z,68.48
2023-01-15T01:54:32.358Z,68.58
2023-01-15T01:55:27.384Z,68.63
2023-01-15T01:56:22.365Z,69.06
2023-01-15T01:57:17.446Z,68.72
2023-01-15T01:58:12.450Z,69.00
2023-01-15T01:59:07.624Z,69.10
2023-01-15T02:00:05.844Z,69.04
2023-01-15T02:01:01.044Z,69.21
2023-01-15T02:01:56.286Z,69.43
2023-01-15T02:02:51.243Z,69.16
2023-01-15T02:03:46.268Z,69.35
2023-01-15T02:04:41.534Z,69.61
2023-01-15T02:05:36.420Z,69.65
2023-01-15T02:06:31.538Z,69.83
2023-01-15T02:07:26.551Z,70.19
2023-01-15T02:08:21.680Z,70.21
2023-01-15T02:09:16.855Z,70.61
2023-01-15T02:10:11.870Z,71.10
2023-01-15T02:11:06.859Z,71.76
2023-01-15T02:12:01.881Z,71.75
2023-01-15T02:12:57.123Z,72.04
2023-01-15T02:13:52.893Z,72.29
2023-01-15T02:14:48.036Z,72.32
2023-01-15T02:15:44.216Z,72.80
2023-01-15T02:16:39.290Z,72.95
2023-01-15T02:17:34.359Z,72.96
2023-01-15T02:18:30.184Z,73.27
2023-01-15T02:19:25.584Z,72.80
2023-01-15T02:20:20.724Z,73.16
2023-01-15T02:21:17.231Z,73.36
2023-01-15T02:22:12.360Z,73.58
2023-01-15T02:23:08.323Z,73.84
2023-01-15T02:24:03.497Z,73.92
2023-01-15T02:24:58.635Z,73.72
2023-01-15T02:25:54.723Z,73.89
2023-01-15T02:26:49.704Z,73.71
2023-01-15T02:27:45.794Z,73.99
2023-01-15T02:28:41.034Z,73.73
2023-01-15T02:29:36.145Z,73.87
2023-01-15T02:30:32.152Z,73.70
2023-01-15T02:31:27.493Z,73.71
2023-01-15T02:32:22.401Z,73.72
2023-01-15T02:33:19.018Z,73.75
2023-01-15T02:34:14.320Z,73.74
2023-01-15T02:35:10.144Z,73.75
2023-01-15T02:36:05.389Z,73.74
2023-01-15T02:37:00.665Z,73.92
2023-01-15T02:37:56.650Z,73.83
2023-01-15T02:38:51.718Z,73.91
2023-01-15T02:39:47.536Z,73.94
2023-01-15T02:40:42.669Z,74.01
2023-01-15T02:41:38.006Z,74.00
2023-01-15T02:42:33.932Z,74.07
2023-01-15T02:43:29.459Z,73.93
2023-01-15T02:44:24.459Z,74.02
2023-01-15T02:45:20.163Z,74.14
2023-01-15T02:46:15.346Z,74.02
2023-01-15T02:47:10.464Z,74.22
2023-01-15T02:48:06.992Z,74.13
2023-01-15T02:49:02.314Z,74.17
2023-01-15T02:49:57.977Z,74.13
2023-01-15T02:50:53.106Z,74.14
2023-01-15T02:51:48.368Z,74.07
2023-01-15T02:52:44.179Z,74.08
2023-01-15T02:53:39.187Z,74.08
2023-01-15T02:54:35.177Z,73.94
2023-01-15T02:55:30.316Z,73.95
2023-01-15T02:56:25.585Z,73.78
2023-01-15T02:57:20.714Z,73.81
2023-01-15T02:58:15.877Z,73.70
2023-01-15T02:59:10.880Z,73.63
2023-01-15T03:00:05.910Z,73.71
2023-01-15T03:01:01.151Z,73.58
2023-01-15T03:01:56.504Z,73.86
2023-01-15T03:02:51.498Z,73.74
2023-01-15T03:03:50.168Z,73.77
2023-01-15T03:04:45.163Z,73.87
2023-01-15T03:05:40.340Z,73.80
2023-01-15T03:06:35.467Z,73.62
2023-01-15T03:07:31.827Z,73.65
2023-01-15T03:08:27.046Z,73.59
2023-01-15T03:09:22.183Z,73.74
2023-01-15T03:10:17.448Z,73.81
2023-01-15T03:11:12.639Z,73.55
2023-01-15T03:12:08.556Z,73.61
2023-01-15T03:13:03.833Z,73.65
2023-01-15T03:13:58.797Z,73.54
2023-01-15T03:14:54.228Z,73.50
2023-01-15T03:15:49.203Z,73.57
2023-01-15T03:16:44.457Z,73.49
2023-01-15T03:17:39.337Z,73.57
2023-01-15T03:18:34.343Z,73.66
2023-01-15T03:19:29.408Z,73.42
2023-01-15T03:20:24.391Z,73.55
2023-01-15T03:21:19.765Z,73.54
2023-01-15T03:22:14.707Z,73.64
2023-01-15T03:23:09.673Z,73.51
2023-01-15T03:24:05.782Z,73.64
2023-01-15T03:25:00.878Z,73.70
2023-01-15T03:25:56.168Z,73.57
2023-01-15T03:26:51.317Z,73.57
2023-01-15T03:27:46.752Z,73.60
2023-01-15T03:28:41.590Z,73.65
2023-01-15T03:29:36.810Z,73.77
2023-01-15T03:30:32.128Z,73.63
2023-01-15T03:31:27.894Z,73.75
2023-01-15T03:32:23.147Z,73.71
2023-01-15T03:33:18.503Z,73.84
2023-01-15T03:34:14.188Z,74.01
2023-01-15T03:35:09.306Z,74.07
2023-01-15T03:36:05.116Z,74.08
2023-01-15T03:37:00.301Z,74.07
2023-01-15T03:37:55.706Z,74.12
2023-01-15T03:38:51.323Z,74.12
2023-01-15T03:39:46.898Z,74.20
2023-01-15T03:40:41.660Z,74.19
2023-01-15T03:41:38.550Z,74.22
2023-01-15T03:42:33.711Z,74.26
2023-01-15T03:43:29.778Z,74.39
2023-01-15T03:44:24.865Z,74.48
2023-01-15T03:45:20.148Z,74.51
2023-01-15T03:46:16.133Z,74.68
2023-01-15T03:47:11.164Z,74.56
2023-01-15T03:48:07.312Z,74.60
2023-01-15T03:49:02.303Z,74.67
2023-01-15T03:49:57.486Z,74.68
2023-01-15T03:50:53.426Z,74.71
2023-01-15T03:51:48.733Z,74.80
2023-01-15T03:52:43.913Z,74.90
2023-01-15T03:53:40.298Z,74.87
2023-01-15T03:54:35.418Z,74.93
2023-01-15T03:55:31.319Z,75.00
2023-01-15T03:56:26.309Z,75.09
2023-01-15T03:57:21.683Z,75.10
2023-01-15T03:58:17.558Z,75.25
2023-01-15T03:59:12.784Z,75.17
2023-01-15T04:00:08.717Z,75.12
2023-01-15T04:01:03.817Z,75.22
2023-01-15T04:01:58.915Z,75.15
2023-01-15T04:02:54.757Z,75.12
2023-01-15T04:03:49.931Z,75.17
2023-01-15T04:04:45.363Z,75.19
2023-01-15T04:05:41.590Z,75.32
2023-01-15T04:06:36.839Z,75.22
2023-01-15T04:07:32.578Z,75.25
2023-01-15T04:08:27.698Z,75.31
2023-01-15T04:09:23.146Z,75.37
2023-01-15T04:10:19.007Z,75.42
2023-01-15T04:11:14.014Z,75.53
2023-01-15T04:12:09.874Z,75.75
2023-01-15T04:13:05.249Z,75.89
2023-01-15T04:14:00.752Z,75.98
2023-01-15T04:14:56.364Z,75.96
2023-01-15T04:15:51.488Z,75.90
2023-01-15T04:16:46.589Z,75.89
2023-01-15T04:17:42.947Z,75.98
2023-01-15T04:18:38.419Z,76.05
2023-01-15T04:19:34.322Z,75.99
2023-01-15T04:20:29.276Z,76.07
2023-01-15T04:21:24.456Z,76.18
2023-01-15T04:22:20.540Z,76.22
2023-01-15T04:23:15.676Z,76.28
2023-01-15T04:24:11.369Z,76.27
2023-01-15T04:25:06.479Z,76.39
2023-01-15T04:26:02.025Z,76.40
2023-01-15T04:26:57.452Z,76.45
2023-01-15T04:27:52.678Z,76.50
2023-01-15T04:28:47.923Z,76.53
2023-01-15T04:29:44.397Z,76.55
2023-01-15T04:30:39.563Z,76.69
2023-01-15T04:31:34.686Z,76.75
2023-01-15T04:32:29.787Z,76.86
2023-01-15T04:33:26.536Z,76.95
2023-01-15T04:34:21.503Z,77.02
2023-01-15T04:35:16.658Z,77.11
2023-01-15T04:36:13.150Z,77.13
2023-01-15T04:37:08.312Z,77.16
2023-01-15T04:38:04.165Z,77.26
2023-01-15T04:38:59.205Z,77.36
2023-01-15T04:39:54.297Z,77.40
2023-01-15T04:40:50.300Z,77.39
2023-01-15T04:41:45.531Z,77.43
2023-01-15T04:42:41.447Z,77.47
2023-01-15T04:43:36.455Z,77.51
2023-01-15T04:44:31.671Z,77.50
2023-01-15T04:45:27.461Z,77.56
2023-01-15T04:46:22.845Z,77.57
2023-01-15T04:47:17.898Z,77.71
2023-01-15T04:48:14.727Z,77.89
2023-01-15T04:49:09.748Z,78.00
2023-01-15T04:50:05.061Z,78.07
2023-01-15T04:51:00.139Z,78.11
2023-01-15T04:51:55.450Z,78.17
2023-01-15T04:52:50.943Z,78.15
2023-01-15T04:53:46.020Z,78.32
2023-01-15T04:54:41.065Z,78.31
2023-01-15T04:55:37.006Z,78.35
2023-01-15T04:56:32.054Z,78.39
2023-01-15T04:57:27.183Z,78.46
2023-01-15T04:58:22.142Z,78.42
2023-01-15T04:59:17.382Z,78.64
2023-01-15T05:00:12.593Z,78.66
2023-01-15T05:01:09.233Z,78.75
2023-01-15T05:02:06.680Z,78.73
2023-01-15T05:02:59.476Z,78.82
2023-01-15T05:03:54.538Z,78.73
2023-01-15T05:04:49.665Z,78.77
2023-01-15T05:05:46.003Z,78.84
2023-01-15T05:06:41.078Z,78.85
2023-01-15T05:07:36.272Z,78.86
2023-01-15T05:08:31.484Z,78.96
2023-01-15T05:09:26.553Z,78.99
2023-01-15T05:10:21.881Z,79.03
2023-01-15T05:11:18.068Z,79.14
2023-01-15T05:12:13.268Z,79.13
2023-01-15T05:13:08.702Z,79.10
2023-01-15T05:14:03.688Z,79.22
2023-01-15T05:14:58.710Z,79.27
2023-01-15T05:15:53.879Z,79.36
2023-01-15T05:16:48.931Z,79.38
2023-01-15T05:17:44.142Z,79.45
2023-01-15T05:18:39.325Z,79.49
2023-01-15T05:19:34.270Z,79.48
2023-01-15T05:20:29.315Z,79.62
2023-01-15T05:21:24.431Z,79.52
2023-01-15T05:22:19.452Z,79.53
2023-01-15T05:23:14.506Z,79.56
2023-01-15T05:24:09.699Z,79.56
2023-01-15T05:25:04.661Z,79.58
2023-01-15T05:25:59.594Z,79.48
2023-01-15T05:26:54.813Z,79.46
2023-01-15T05:27:55.244Z,79.44
2023-01-15T05:28:50.284Z,79.51
2023-01-15T05:29:45.371Z,79.52
2023-01-15T05:30:41.407Z,79.45
2023-01-15T05:31:36.483Z,79.32
2023-01-15T05:32:31.528Z,79.24
2023-01-15T05:33:27.741Z,79.23
2023-01-15T05:34:23.054Z,79.12
2023-01-15T05:35:18.927Z,79.22
2023-01-15T05:36:14.262Z,79.26
2023-01-15T05:37:09.352Z,79.32
2023-01-15T05:38:05.279Z,79.35
2023-01-15T05:39:00.432Z,79.35
2023-01-15T05:39:56.452Z,79.34
2023-01-15T05:40:51.489Z,79.27
2023-01-15T05:41:46.838Z,79.30
2023-01-15T05:42:42.548Z,79.16
2023-01-15T05:43:37.779Z,79.11
2023-01-15T05:44:33.101Z,79.14
2023-01-15T05:45:29.327Z,79.09
2023-01-15T05:46:24.548Z,79.02
2023-01-15T05:47:20.531Z,79.07
2023-01-15T05:48:15.796Z,79.02
2023-01-15T05:49:10.896Z,79.07
2023-01-15T05:50:06.902Z,79.11
2023-01-15T05:51:01.884Z,79.09
2023-01-15T05:51:57.981Z,78.99
2023-01-15T05:52:53.072Z,78.94
2023-01-15T05:53:48.498Z,78.94
2023-01-15T05:54:44.114Z,78.93
2023-01-15T05:55:39.464Z,78.82
2023-01-15T05:56:34.500Z,78.86
2023-01-15T05:57:30.945Z,78.82
2023-01-15T05:58:26.280Z,78.81
2023-01-15T05:59:22.328Z,78.79
2023-01-15T06:00:17.539Z,78.73
2023-01-15T06:01:12.817Z,78.77
2023-01-15T06:02:08.640Z,78.67
2023-01-15T06:03:04.090Z,78.65
2023-01-15T06:05:25.437Z,79.28
2023-01-15T06:06:20.359Z,79.09
2023-01-15T06:07:15.477Z,78.76
2023-01-15T06:08:10.751Z,78.58
2023-01-15T06:09:06.011Z,78.58
2023-01-15T06:10:01.095Z,78.68
2023-01-15T06:10:56.362Z,78.64
2023-01-15T06:11:51.408Z,78.68
2023-01-15T06:12:46.566Z,78.66
2023-01-15T06:13:41.731Z,78.71
2023-01-15T06:14:36.862Z,78.72
2023-01-15T06:15:32.119Z,78.75
2023-01-15T06:16:27.388Z,78.80
2023-01-15T06:17:22.583Z,78.93
2023-01-15T06:18:17.752Z,78.91
2023-01-15T06:19:12.852Z,78.86
2023-01-15T06:20:08.080Z,79.03
2023-01-15T06:21:03.209Z,79.16
2023-01-15T06:21:58.436Z,79.22
2023-01-15T06:22:53.580Z,79.24
2023-01-15T06:23:48.702Z,79.30
2023-01-15T06:24:43.811Z,79.35
2023-01-15T06:25:39.095Z,79.39
2023-01-15T06:26:34.241Z,79.44
2023-01-15T06:27:29.310Z,79.41
2023-01-15T06:28:24.399Z,79.62
2023-01-15T06:29:19.644Z,79.69
2023-01-15T06:30:14.729Z,79.71
2023-01-15T06:31:09.899Z,79.76
2023-01-15T06:32:05.330Z,79.86
2023-01-15T06:33:00.060Z,79.90
2023-01-15T06:33:55.279Z,79.88
2023-01-15T06:34:50.510Z,79.82
2023-01-15T06:35:45.621Z,79.69
2023-01-15T06:36:40.928Z,79.57
2023-01-15T06:37:36.390Z,79.46
2023-01-15T06:38:31.148Z,79.37
2023-01-15T06:39:26.266Z,79.40
2023-01-15T06:40:21.395Z,79.39
2023-01-15T06:41:16.533Z,79.47
2023-01-15T06:42:11.738Z,79.57
2023-01-15T06:43:06.865Z,79.71
2023-01-15T06:44:02.494Z,79.85
2023-01-15T06:44:57.228Z,80.13
2023-01-15T06:45:52.498Z,80.29
2023-01-15T06:46:47.496Z,80.39
2023-01-15T06:47:42.558Z,80.44
2023-01-15T06:48:37.739Z,80.45
2023-01-15T06:49:33.022Z,80.59
2023-01-15T06:50:28.151Z,80.81
2023-01-15T06:51:23.263Z,81.18
2023-01-15T06:52:18.382Z,81.42
2023-01-15T06:53:13.605Z,81.72
2023-01-15T06:54:08.701Z,82.48
2023-01-15T06:55:04.078Z,83.44
2023-01-15T06:55:59.037Z,83.93
2023-01-15T06:56:54.298Z,84.49
2023-01-15T06:57:49.501Z,84.82
2023-01-15T06:58:44.593Z,85.04
2023-01-15T06:59:39.818Z,85.11
2023-01-15T07:00:35.092Z,85.17
2023-01-15T07:01:30.306Z,85.28
2023-01-15T07:02:25.307Z,85.41
2023-01-15T07:03:20.526Z,85.52
2023-01-15T07:04:15.880Z,85.62
2023-01-15T07:05:11.025Z,85.64
2023-01-15T07:06:06.277Z,85.67
2023-01-15T07:07:02.031Z,85.80
2023-01-15T07:07:56.515Z,85.78
2023-01-15T07:08:51.535Z,85.85
2023-01-15T07:09:46.667Z,85.69
2023-01-15T07:10:41.745Z,85.55
2023-01-15T07:11:36.834Z,85.56
2023-01-15T07:12:31.847Z,85.75
2023-01-15T07:13:26.890Z,85.72
2023-01-15T07:14:22.069Z,85.75
2023-01-15T07:15:17.071Z,85.46
2023-01-15T07:16:12.130Z,85.42
2023-01-15T07:17:07.272Z,85.06
2023-01-15T07:18:02.212Z,85.09
2023-01-15T07:18:57.316Z,84.93
2023-01-15T07:19:52.389Z,84.81
2023-01-15T07:20:47.563Z,84.75
2023-01-15T07:21:42.556Z,84.80
2023-01-15T07:22:37.924Z,84.75
2023-01-15T07:23:32.748Z,84.58
2023-01-15T07:24:29.609Z,84.58
2023-01-15T07:25:24.710Z,84.58
2023-01-15T07:26:19.984Z,84.70
2023-01-15T07:27:15.067Z,84.69
2023-01-15T07:28:10.185Z,84.78
2023-01-15T07:29:05.148Z,84.87
2023-01-15T07:30:00.354Z,85.01
2023-01-15T07:30:55.500Z,85.24
2023-01-15T07:31:50.536Z,85.11
2023-01-15T07:32:45.656Z,85.23
2023-01-15T07:33:40.673Z,85.57
2023-01-15T07:34:35.640Z,85.46
2023-01-15T07:35:31.182Z,85.14
2023-01-15T07:36:26.171Z,85.26
2023-01-15T07:37:21.735Z,85.19
2023-01-15T07:38:17.384Z,85.12
2023-01-15T07:39:12.627Z,85.01
2023-01-15T07:40:08.284Z,85.06
2023-01-15T07:41:03.538Z,85.21
2023-01-15T07:41:59.071Z,85.15
2023-01-15T07:42:54.977Z,85.34
2023-01-15T07:43:50.063Z,85.12
2023-01-15T07:44:45.164Z,85.32
2023-01-15T07:45:41.675Z,85.15
2023-01-15T07:46:36.921Z,85.25
2023-01-15T07:47:32.715Z,85.42
2023-01-15T07:48:28.136Z,85.62
2023-01-15T07:49:23.545Z,85.85
2023-01-15T07:50:19.356Z,85.87
2023-01-15T07:51:14.564Z,86.02
2023-01-15T07:52:10.610Z,85.99
2023-01-15T07:53:05.847Z,86.14
2023-01-15T07:54:01.005Z,86.17
2023-01-15T07:54:56.829Z,86.32
2023-01-15T07:55:52.174Z,86.42
2023-01-15T07:56:47.377Z,86.61
2023-01-15T07:57:43.876Z,86.75
2023-01-15T07:58:39.259Z,86.89
2023-01-15T07:59:34.959Z,87.06
2023-01-15T08:00:30.322Z,87.18
2023-01-15T08:01:25.631Z,87.46
2023-01-15T08:02:21.329Z,87.55
2023-01-15T08:03:16.680Z,87.64
2023-01-15T08:04:12.729Z,87.78
2023-01-15T08:05:07.739Z,87.74
2023-01-15T08:06:03.269Z,87.71
2023-01-15T08:06:58.964Z,87.82
2023-01-15T08:07:54.334Z,87.87
2023-01-15T08:08:49.424Z,87.79
2023-01-15T08:09:45.973Z,87.76
2023-01-15T08:10:41.149Z,87.68
2023-01-15T08:11:36.965Z,87.79
2023-01-15T08:12:32.308Z,88.02
2023-01-15T08:13:27.886Z,88.15
2023-01-15T08:14:23.590Z,88.27
2023-01-15T08:15:18.870Z,88.40
2023-01-15T08:16:14.163Z,88.52
2023-01-15T08:17:09.376Z,88.77
2023-01-15T08:18:05.719Z,89.03
2023-01-15T08:19:00.977Z,89.01
2023-01-15T08:19:56.518Z,88.90
2023-01-15T08:20:52.208Z,88.74
2023-01-15T08:21:47.486Z,88.34
2023-01-15T08:22:43.322Z,88.21
2023-01-15T08:23:38.782Z,88.29
2023-01-15T08:24:34.049Z,88.62
2023-01-15T08:25:29.955Z,88.87
2023-01-15T08:26:25.190Z,88.88
2023-01-15T08:27:20.471Z,89.17
2023-01-15T08:28:16.956Z,89.44
2023-01-15T08:29:12.139Z,89.59
2023-01-15T08:30:07.955Z,89.73
2023-01-15T08:31:03.234Z,89.86
2023-01-15T08:31:58.542Z,90.18
2023-01-15T08:32:54.302Z,90.26
2023-01-15T08:34:51.207Z,91.23
2023-01-15T08:35:44.643Z,91.27
2023-01-15T08:36:39.935Z,91.26
2023-01-15T08:37:35.216Z,91.29
2023-01-15T08:38:30.508Z,91.23
2023-01-15T08:39:25.833Z,91.09
2023-01-15T08:40:21.177Z,91.00
2023-01-15T08:41:16.764Z,91.03
2023-01-15T08:42:11.801Z,91.11
2023-01-15T08:43:07.145Z,91.03
2023-01-15T08:44:02.605Z,91.12
2023-01-15T08:44:57.921Z,91.12
2023-01-15T08:45:53.201Z,91.03
2023-01-15T08:46:48.523Z,91.02
2023-01-15T08:47:43.875Z,91.07
2023-01-15T08:48:39.271Z,91.16
2023-01-15T08:49:34.488Z,91.20
2023-01-15T08:50:29.822Z,91.25
2023-01-15T08:51:25.113Z,91.25
2023-01-15T08:52:20.459Z,91.22
2023-01-15T08:53:15.809Z,91.24
2023-01-15T08:54:11.537Z,91.28
2023-01-15T08:55:06.580Z,91.25
2023-01-15T08:56:01.803Z,91.33
2023-01-15T08:56:57.092Z,91.27
2023-01-15T08:57:52.355Z,91.24
2023-01-15T08:58:47.611Z,91.18
2023-01-15T08:59:42.941Z,91.09
2023-01-15T09:00:38.076Z,90.93
2023-01-15T09:01:33.488Z,90.72
2023-01-15T09:02:28.632Z,90.42
2023-01-15T09:03:24.243Z,90.47
2023-01-15T09:04:19.442Z,90.44
2023-01-15T09:05:14.708Z,90.12
2023-01-15T09:06:09.955Z,89.77
2023-01-15T09:07:05.240Z,89.51
2023-01-15T09:08:00.565Z,89.69
2023-01-15T09:08:55.888Z,89.90
2023-01-15T09:09:51.353Z,89.99
2023-01-15T09:10:46.448Z,90.03
2023-01-15T09:11:41.730Z,90.10
2023-01-15T09:12:37.023Z,90.03
2023-01-15T09:13:32.362Z,90.20
2023-01-15T09:14:59.636Z,90.28
2023-01-15T09:15:24.243Z,90.28
2023-01-15T09:16:18.357Z,90.29
2023-01-15T09:17:13.634Z,90.28
2023-01-15T09:18:09.092Z,90.19
2023-01-15T09:19:04.301Z,90.01
2023-01-15T09:19:59.574Z,89.94
2023-01-15T09:20:54.881Z,89.83
2023-01-15T09:21:50.163Z,89.94
2023-01-15T09:22:45.484Z,89.69
2023-01-15T09:23:40.892Z,89.64
2023-01-15T09:24:36.224Z,89.72
2023-01-15T09:25:31.636Z,89.75
2023-01-15T09:26:26.852Z,89.84
2023-01-15T09:27:22.126Z,90.10
2023-01-15T09:28:17.446Z,90.37
2023-01-15T09:29:12.913Z,90.31
2023-01-15T09:30:08.087Z,90.02
2023-01-15T09:31:03.434Z,89.88
2023-01-15T09:31:58.753Z,89.80
2023-01-15T09:32:54.041Z,89.74
2023-01-15T09:33:49.373Z,89.64
2023-01-15T09:34:44.735Z,89.78
2023-01-15T09:35:40.183Z,89.79
2023-01-15T09:36:35.411Z,89.87
2023-01-15T09:37:30.944Z,89.91
2023-01-15T09:38:26.101Z,89.93
2023-01-15T09:39:21.408Z,89.92
2023-01-15T09:40:16.718Z,89.99
2023-01-15T09:41:12.037Z,90.12
2023-01-15T09:42:07.392Z,90.20
2023-01-15T09:43:03.095Z,90.35
2023-01-15T09:43:58.007Z,90.50
2023-01-15T09:44:53.295Z,90.47
2023-01-15T09:45:48.744Z,90.18
2023-01-15T09:46:43.945Z,89.74
2023-01-15T09:47:39.252Z,89.30
2023-01-15T09:48:34.688Z,89.12
2023-01-15T09:49:29.854Z,89.21
2023-01-15T09:50:25.160Z,89.42
2023-01-15T09:51:20.452Z,89.26
2023-01-15T09:52:15.885Z,88.89
2023-01-15T09:53:11.046Z,88.57
2023-01-15T09:54:06.352Z,88.50
2023-01-15T09:55:01.650Z,88.66
2023-01-15T09:55:57.229Z,88.81
2023-01-15T09:56:52.286Z,88.87
2023-01-15T09:57:47.588Z,88.86
2023-01-15T09:58:42.897Z,88.76
2023-01-15T09:59:38.319Z,88.71
2023-01-15T10:00:33.467Z,88.73
2023-01-15T10:01:28.844Z,88.93
2023-01-15T10:02:24.157Z,88.92
2023-01-15T10:03:19.580Z,88.90
2023-01-15T10:04:14.943Z,88.83
2023-01-15T10:05:10.271Z,88.92
2023-01-15T10:06:05.236Z,88.97
2023-01-15T10:07:00.357Z,88.87
2023-01-15T10:07:55.448Z,88.67
2023-01-15T10:08:50.616Z,88.52
2023-01-15T10:09:45.725Z,88.43
2023-01-15T10:10:40.701Z,88.57
2023-01-15T10:11:35.802Z,88.83
2023-01-15T10:12:30.883Z,88.97
2023-01-15T10:13:26.012Z,88.69
2023-01-15T10:14:21.261Z,88.37
2023-01-15T10:15:16.389Z,88.55
2023-01-15T10:16:11.283Z,88.56
2023-01-15T10:17:06.234Z,88.56
2023-01-15T10:18:01.341Z,88.38
2023-01-15T10:18:56.391Z,88.40
2023-01-15T10:19:51.483Z,88.03
2023-01-15T10:20:46.811Z,88.06
2023-01-15T10:21:41.800Z,88.17
2023-01-15T10:22:36.795Z,88.47
2023-01-15T10:23:31.883Z,88.82
2023-01-15T10:24:26.953Z,88.80
2023-01-15T10:25:22.096Z,88.79
2023-01-15T10:26:17.693Z,88.59
2023-01-15T10:27:12.922Z,88.26
2023-01-15T10:28:08.311Z,87.92
2023-01-15T10:29:03.855Z,88.08
2023-01-15T10:29:59.064Z,88.50
2023-01-15T10:30:54.631Z,88.64
2023-01-15T10:31:49.845Z,88.38
2023-01-15T10:33:00.728Z,88.13
2023-01-15T10:33:41.603Z,88.31
2023-01-15T10:34:36.024Z,88.30
2023-01-15T10:35:31.126Z,88.61
2023-01-15T10:36:26.340Z,88.55
2023-01-15T10:37:21.353Z,88.36
2023-01-15T10:38:16.372Z,88.41
2023-01-15T10:39:11.316Z,88.44
2023-01-15T10:40:06.474Z,88.47
2023-01-15T10:41:01.414Z,88.42
2023-01-15T10:41:56.561Z,88.28
2023-01-15T10:42:51.764Z,88.15
2023-01-15T10:43:46.801Z,87.85
2023-01-15T10:44:41.773Z,87.92
2023-01-15T10:45:36.901Z,88.09
2023-01-15T10:46:32.009Z,88.14
2023-01-15T10:47:27.031Z,88.11
2023-01-15T10:48:24.390Z,88.16
2023-01-15T10:49:19.660Z,88.36
2023-01-15T10:50:15.150Z,88.41
2023-01-15T10:51:10.406Z,88.27
2023-01-15T10:52:05.891Z,87.87
2023-01-15T10:53:01.331Z,87.49
2023-01-15T10:53:56.689Z,87.43
2023-01-15T10:54:52.454Z,87.50
2023-01-15T10:55:47.444Z,87.58
2023-01-15T10:56:42.828Z,87.48
2023-01-15T10:57:38.186Z,87.64
2023-01-15T10:58:33.704Z,87.82
2023-01-15T10:59:28.944Z,87.75
2023-01-15T11:00:24.480Z,87.52
2023-01-15T11:01:19.812Z,87.31
2023-01-15T11:02:15.244Z,87.20
2023-01-15T11:03:10.551Z,87.01
2023-01-15T11:04:05.967Z,86.89
2023-01-15T11:05:00.994Z,86.47
2023-01-15T11:05:56.418Z,85.85
2023-01-15T11:06:51.223Z,85.86
2023-01-15T11:08:09.125Z,86.02
2023-01-15T11:09:08.143Z,86.13
2023-01-15T11:09:37.378Z,86.32
2023-01-15T11:10:31.415Z,86.46
2023-01-15T11:11:27.436Z,86.23
2023-01-15T11:12:22.479Z,86.47
2023-01-15T11:13:17.484Z,86.03
2023-01-15T11:14:12.440Z,85.77
2023-01-15T11:15:07.558Z,85.56
2023-01-15T11:16:02.782Z,85.93
2023-01-15T11:16:57.791Z,85.98
2023-01-15T11:17:53.487Z,85.82
2023-01-15T11:18:48.024Z,85.64
2023-01-15T11:19:43.321Z,85.51
2023-01-15T11:20:38.358Z,85.49
2023-01-15T11:21:33.456Z,85.57
2023-01-15T11:22:28.526Z,85.81
2023-01-15T11:23:23.704Z,85.41
2023-01-15T11:24:18.690Z,85.31
2023-01-15T11:25:13.919Z,85.49
2023-01-15T11:26:08.852Z,85.51
2023-01-15T11:27:03.974Z,85.17
2023-01-15T11:27:59.040Z,84.77
2023-01-15T11:28:54.051Z,84.80
2023-01-15T11:29:49.162Z,85.13
2023-01-15T11:30:44.741Z,85.59
2023-01-15T11:31:39.979Z,85.86
2023-01-15T11:32:35.350Z,85.96
2023-01-15T11:33:30.734Z,85.90
2023-01-15T11:34:26.141Z,85.73
2023-01-15T11:35:21.529Z,85.57
2023-01-15T11:36:17.038Z,85.33
2023-01-15T11:37:12.288Z,85.38
2023-01-15T11:38:08.085Z,85.67
2023-01-15T11:39:03.146Z,86.06
2023-01-15T11:39:58.627Z,85.42
2023-01-15T11:40:53.903Z,85.47
2023-01-15T11:41:49.160Z,85.80
2023-01-15T11:42:43.977Z,85.98
2023-01-15T11:43:39.239Z,86.07
2023-01-15T11:44:34.033Z,86.62
2023-01-15T11:45:29.157Z,87.03
2023-01-15T11:46:24.275Z,87.08
2023-01-15T11:47:19.398Z,86.71
2023-01-15T11:48:14.383Z,86.76
2023-01-15T11:49:09.518Z,86.91
2023-01-15T11:50:04.515Z,86.72
2023-01-15T11:51:02.929Z,86.43
2023-01-15T11:51:57.962Z,86.63
2023-01-15T11:52:53.024Z,87.03
2023-01-15T11:53:48.345Z,86.81
2023-01-15T11:54:43.115Z,86.38